小松飛行場の過去48時間の天気

小松飛行場 (Kanazawa/Komatsu)

現在時刻: 9/16 12:11 JST (9/16 03:11 UTC) 以下の時間は現地時間です。

過去48時間のMETAR気象情報
時間 風向 風速(m/s) 視程 気温(℃) 湿度(%) 気圧(hPa) 天気現象
16 12:00 北北東 6 10km以上 28 70 1004
16 11:00 7 10km以上 28 66 1005
16 10:00 北北西 6 10km以上 27 70 1005
16 09:00 北北東 5 10km以上 28 62 1005
16 08:00 東北東 3 10km以上 26 74 1005
16 07:00 静穏 0 10km以上 23 83 1005
16 06:00 不定 1 10km以上 22 83 1005
16 05:00 不定 1 10km以上 21 88 1006
16 04:00 東南東 2 10km以上 21 94 1006
16 03:00 東南東 1 10km以上 21 94 1006
16 02:00 南東 1 10km以上 22 88 1006
16 01:00 西 1 10km以上 23 89 1006
16 00:00 南東 2 10km以上 23 89 1007
15 23:00 1 10km以上 23 89 1007
15 22:00 不定 1 10km以上 24 83 1007
15 21:00 東北東 3 10km以上 25 74 1007
15 20:00 北北東 4 10km以上 26 70 1007
15 19:00 4 10km以上 26 79 1007
15 18:00 北北東 4 10km以上 26 79 1007
15 17:00 5 10km以上 27 70 1007
15 16:00 4 10km以上 28 66 1007
15 15:00 北北西 5 10km以上 28 62 1007
15 14:00 北北西 6 10km以上 28 66 1008
15 13:00 北北西 6 10km以上 28 62 1008
15 12:00 北西 5 10km以上 29 52 1009
15 11:00 4 10km以上 28 55 1009
15 10:00 北北西 3 10km以上 28 51 1010
15 09:00 北西 2 10km以上 26 65 1010
15 08:00 不定 1 10km以上 25 69 1010
15 07:00 不定 1 10km以上 23 78 1010
15 06:00 南東 2 10km以上 21 83 1010
15 05:00 不定 1 10km以上 21 83 1010
15 04:00 不定 1 10km以上 22 78 1010
15 03:00 南東 2 10km以上 22 78 1010
15 02:00 東南東 2 10km以上 22 78 1010
15 01:00 不定 1 10km以上 22 83 1010
15 00:00 南東 1 10km以上 23 73 1010
14 23:00 不定 1 10km以上 23 78 1010
14 22:00 南南東 2 10km以上 23 83 1011
14 21:00 南東 3 10km以上 24 78 1011
14 20:00 南東 2 10km以上 25 74 1011
14 19:00 北北東 2 10km以上 26 70 1011
14 18:00 北北東 3 10km以上 27 62 1010
14 17:00 3 10km以上 27 58 1010
14 16:00 北西 4 10km以上 28 51 1010
14 15:00 北西 2 10km以上 28 55 1010
14 14:00 5 10km以上 29 55 1010
14 13:00 6 10km以上 28 58 1010
RJNK 160300Z 02012KT 350V050 9999 FEW020 SCT035 28/22 Q1004
RJNK 160200Z 35013KT 9999 FEW020 28/21 Q1005
RJNK 160100Z 34012KT 9999 FEW020 27/21 Q1005
RJNK 160000Z 02009KT 350V050 9999 FEW020 28/20 Q1005
RJNK 152300Z 07005KT 020V110 9999 FEW020 26/21 Q1005
RJNK 152200Z 00000KT 9999 FEW025 23/20 Q1005
RJNK 152100Z VRB02KT 9999 FEW030 22/19 Q1005
RJNK 152000Z VRB02KT 9999 SCT060 21/19 Q1006
RJNK 151900Z 11004KT 9999 FEW080 21/20 Q1006
RJNK 151800Z 12002KT 9999 NSC 21/20 Q1006
RJNK 151700Z 14002KT 9999 FEW050 22/20 Q1006
RJNK 151600Z 26002KT 9999 FEW030 23/21 Q1006
RJNK 151500Z 13004KT 080V150 9999 FEW030 23/21 Q1007
RJNK 151400Z 08002KT 9999 FEW030 23/21 Q1007
RJNK 151300Z VRB02KT 9999 FEW030 24/21 Q1007
RJNK 151200Z 06005KT 9999 FEW030 25/20 Q1007
RJNK 151100Z 02008KT 9999 FEW030 26/20 Q1007
RJNK 151000Z 01007KT 9999 FEW030 SCT050 26/22 Q1007
RJNK 150900Z 02008KT 9999 FEW030 SCT050 26/22 Q1007
RJNK 150800Z 36009KT 330V030 9999 FEW030 BKN050 27/21 Q1007
RJNK 150700Z 35008KT 9999 FEW030 28/21 Q1007
RJNK 150600Z 34009KT 9999 FEW030 28/20 Q1007
RJNK 150500Z 33011KT 9999 FEW030 28/21 Q1008
RJNK 150400Z 33011KT 9999 FEW030 28/20 Q1008
RJNK 150300Z 32010KT 9999 FEW030 29/18 Q1009
RJNK 150200Z VRB07KT 9999 FEW050 28/18 Q1009
RJNK 150100Z 33005KT 280V010 9999 FEW070 28/17 Q1010
RJNK 150000Z 31003KT 270V350 9999 FEW070 26/19 Q1010
RJNK 142300Z VRB01KT 9999 FEW070 25/19 Q1010
RJNK 142200Z VRB02KT 9999 FEW060 SCT080 23/19 Q1010
RJNK 142100Z 14003KT 9999 FEW080 21/18 Q1010
RJNK 142000Z VRB01KT 9999 FEW070 21/18 Q1010
RJNK 141900Z VRB02KT 9999 FEW050 SCT070 22/18 Q1010
RJNK 141800Z 13004KT 9999 FEW050 BKN070 22/18 Q1010
RJNK 141700Z 12003KT 9999 FEW050 BKN070 22/18 Q1010
RJNK 141600Z VRB01KT 9999 FEW050 BKN070 22/19 Q1010
RJNK 141500Z 13002KT 9999 FEW050 SCT070 23/18 Q1010
RJNK 141400Z VRB02KT 9999 FEW050 SCT070 23/19 Q1010
RJNK 141300Z 16003KT 9999 FEW050 BKN070 23/20 Q1011
RJNK 141200Z 14005KT 9999 FEW050 24/20 Q1011
RJNK 141100Z 14004KT 9999 FEW050 25/20 Q1011
RJNK 141000Z 03004KT 330V070 9999 FEW050 26/20 Q1011
RJNK 140900Z 03006KT 9999 FEW050 SCT070 27/19 Q1010
RJNK 140800Z 35005KT 9999 FEW030 SCT070 27/18 Q1010
RJNK 140700Z 31008KT 9999 FEW030 BKN050 BKN080 28/17 Q1010
RJNK 140600Z 31004KT 260V360 9999 FEW030 SCT050 28/18 Q1010
RJNK 140500Z 35009KT 9999 FEW030 29/19 Q1010
RJNK 140400Z 36012KT 9999 FEW050 28/19 Q1010